createdAt,value
2023-01-12T00:00:13.299Z,101155.08
2023-01-12T00:02:44.539Z,101156.89
2023-01-12T00:05:16.679Z,101157.84
2023-01-12T00:07:48.821Z,101156.17
2023-01-12T00:10:20.812Z,101148.44
2023-01-12T00:12:52.935Z,101151.95
2023-01-12T00:15:43.243Z,101143.45
2023-01-12T00:18:15.345Z,101142.66
2023-01-12T00:20:51.271Z,101151.18
2023-01-12T00:23:24.971Z,101143.61
2023-01-12T00:25:57.034Z,101142.83
2023-01-12T00:28:29.162Z,101140.22
2023-01-12T00:31:08.058Z,101137.71
2023-01-12T00:33:41.148Z,101131.14
2023-01-12T00:36:14.826Z,101133.66
2023-01-12T00:38:48.740Z,101130.42
2023-01-12T00:41:38.501Z,101123.47
2023-01-12T00:44:28.173Z,101127.70
2023-01-12T00:47:00.413Z,101127.70
2023-01-12T00:49:32.275Z,101128.53
2023-01-12T00:52:04.868Z,101137.09
2023-01-12T00:54:37.719Z,101135.31
2023-01-12T00:57:09.972Z,101136.94
2023-01-12T00:59:42.517Z,101137.81
2023-01-12T01:02:14.890Z,101134.33
2023-01-12T01:04:47.005Z,101137.71
2023-01-12T01:07:20.689Z,101138.61
2023-01-12T01:09:52.190Z,101130.92
2023-01-12T01:12:23.664Z,101132.98
2023-01-12T01:14:55.794Z,101120.63
2023-01-12T01:17:28.936Z,101118.87
2023-01-12T01:20:01.482Z,101124.77
2023-01-12T01:22:34.020Z,101124.75
2023-01-12T01:25:06.587Z,101133.32
2023-01-12T01:27:38.653Z,101128.09
2023-01-12T01:30:11.407Z,101130.77
2023-01-12T01:32:43.354Z,101126.31
2023-01-12T01:35:15.277Z,101124.59
2023-01-12T01:37:47.304Z,101123.70
2023-01-12T01:40:19.520Z,101117.81
2023-01-12T01:42:51.819Z,101112.85
2023-01-12T01:45:23.968Z,101103.45
2023-01-12T01:47:58.793Z,101108.63
2023-01-12T01:50:36.369Z,101104.45
2023-01-12T01:53:11.003Z,101097.66
2023-01-12T01:55:49.956Z,101094.21
2023-01-12T01:58:33.749Z,101083.98
2023-01-12T02:01:06.212Z,101079.76
2023-01-12T02:03:39.440Z,101080.73
2023-01-12T02:06:11.772Z,101081.57
2023-01-12T02:08:49.610Z,101076.47
2023-01-12T02:11:40.165Z,101073.02
2023-01-12T02:14:30.118Z,101067.89
2023-01-12T02:17:38.180Z,101067.11
2023-01-12T02:20:21.866Z,101071.34
2023-01-12T02:23:13.036Z,101078.18
2023-01-12T02:26:20.842Z,101074.79
2023-01-12T02:29:05.176Z,101078.23
2023-01-12T02:32:03.809Z,101074.89
2023-01-12T02:34:47.359Z,101074.94
2023-01-12T02:37:40.109Z,101067.22
2023-01-12T02:40:18.193Z,101060.53
2023-01-12T02:42:56.173Z,101068.94
2023-01-12T02:45:39.963Z,101071.45
2023-01-12T02:48:24.216Z,101067.53
2023-01-12T02:51:02.144Z,101056.14
2023-01-12T02:53:49.154Z,101057.03
2023-01-12T02:56:32.925Z,101067.16
2023-01-12T02:59:10.640Z,101064.70
2023-01-12T03:01:44.867Z,101063.77
2023-01-12T03:04:18.680Z,101064.61
2023-01-12T03:06:54.274Z,101072.43
2023-01-12T03:09:28.826Z,101063.30
2023-01-12T03:12:06.717Z,101062.21
2023-01-12T03:14:41.887Z,101069.98
2023-01-12T03:17:16.923Z,101080.23
2023-01-12T03:19:50.794Z,101075.06
2023-01-12T03:22:23.916Z,101075.01
2023-01-12T03:24:58.927Z,101073.38
2023-01-12T03:27:35.835Z,101078.50
2023-01-12T03:30:11.060Z,101074.33
2023-01-12T03:32:43.926Z,101068.42
2023-01-12T03:35:17.088Z,101072.70
2023-01-12T03:37:58.513Z,101073.59
2023-01-12T03:40:36.439Z,101062.57
2023-01-12T03:43:26.386Z,101057.55
2023-01-12T03:46:16.307Z,101055.08
2023-01-12T03:49:00.053Z,101059.33
2023-01-12T03:51:35.186Z,101052.42
2023-01-12T03:54:09.900Z,101037.02
2023-01-12T03:56:43.571Z,101022.65
2023-01-12T03:59:17.000Z,101025.20
2023-01-12T04:01:49.593Z,101016.73
2023-01-12T04:04:22.986Z,101016.84
2023-01-12T04:06:55.016Z,101028.90
2023-01-12T04:09:27.006Z,101028.90
2023-01-12T04:12:11.014Z,101023.83
2023-01-12T04:14:47.916Z,101023.83
2023-01-12T04:17:20.620Z,101019.58
2023-01-12T04:19:54.253Z,101021.36
2023-01-12T04:22:44.628Z,101015.54
2023-01-12T04:25:19.736Z,100992.20
2023-01-12T04:27:56.060Z,101015.64
2023-01-12T04:30:28.892Z,101020.66
2023-01-12T04:33:02.141Z,101015.59
2023-01-12T04:35:34.092Z,101014.80
2023-01-12T04:38:10.739Z,101007.11
2023-01-12T04:40:43.187Z,101023.37
2023-01-12T04:43:15.197Z,101027.71
2023-01-12T04:45:48.112Z,101047.50
2023-01-12T04:48:20.743Z,101040.75
2023-01-12T04:50:53.705Z,101032.83
2023-01-12T04:53:26.321Z,101011.41
2023-01-12T04:55:58.985Z,101013.92
2023-01-12T04:58:31.318Z,101002.89
2023-01-12T05:01:15.488Z,100993.58
2023-01-12T05:03:48.032Z,101008.05
2023-01-12T05:06:20.150Z,101006.43
2023-01-12T05:09:10.179Z,100999.63
2023-01-12T05:11:42.635Z,100999.72
2023-01-12T05:14:14.874Z,101002.38
2023-01-12T05:16:47.229Z,100999.86
2023-01-12T05:19:19.667Z,100998.09
2023-01-12T05:21:51.911Z,101008.38
2023-01-12T05:24:24.305Z,101006.75
2023-01-12T05:26:57.052Z,101001.59
2023-01-12T05:29:30.107Z,101007.68
2023-01-12T05:32:02.145Z,101007.63
2023-01-12T05:34:34.360Z,101004.37
2023-01-12T05:37:06.470Z,101025.76
2023-01-12T05:39:38.441Z,101025.66
2023-01-12T05:42:28.066Z,101011.03
2023-01-12T05:45:00.310Z,101010.95
2023-01-12T05:47:33.543Z,101010.00
2023-01-12T05:50:06.991Z,101001.40
2023-01-12T05:52:39.491Z,101013.22
2023-01-12T05:55:12.344Z,101007.22
2023-01-12T05:57:44.568Z,101005.54
2023-01-12T06:00:17.378Z,100996.27
2023-01-12T06:02:49.512Z,101004.80
2023-01-12T06:05:22.060Z,100998.00
2023-01-12T06:07:54.254Z,101004.84
2023-01-12T06:10:26.338Z,100999.34
2023-01-12T06:13:16.010Z,101000.73
2023-01-12T06:15:48.208Z,101001.32
2023-01-12T06:18:22.711Z,100993.20
2023-01-12T06:20:55.265Z,100981.72
2023-01-12T06:23:35.544Z,100989.94
2023-01-12T06:26:06.434Z,100999.17
2023-01-12T06:28:41.057Z,101006.33
2023-01-12T06:31:16.356Z,101006.07
2023-01-12T06:33:49.306Z,101000.13
2023-01-12T06:36:21.799Z,100994.26
2023-01-12T06:38:54.301Z,100994.26
2023-01-12T06:41:44.143Z,101001.59
2023-01-12T06:44:16.489Z,100999.03
2023-01-12T06:46:48.733Z,100997.50
2023-01-12T06:49:21.290Z,101006.95
2023-01-12T06:51:53.304Z,101003.52
2023-01-12T06:54:25.347Z,101008.68
2023-01-12T06:56:57.269Z,100997.61
2023-01-12T06:59:29.836Z,100995.94
2023-01-12T07:02:03.445Z,101008.68
2023-01-12T07:04:35.888Z,101006.12
2023-01-12T07:07:09.253Z,101006.28
2023-01-12T07:09:41.330Z,101008.30
2023-01-12T07:12:13.660Z,101010.22
2023-01-12T07:14:45.985Z,101000.83
2023-01-12T07:17:18.174Z,101003.44
2023-01-12T07:19:50.431Z,100994.67
2023-01-12T07:22:22.749Z,101000.28
2023-01-12T07:24:57.569Z,100982.30
2023-01-12T07:27:28.872Z,100984.02
2023-01-12T07:30:01.022Z,100983.89
2023-01-12T07:32:33.811Z,100985.61
2023-01-12T07:35:07.916Z,100980.91
2023-01-12T07:37:40.102Z,100969.56
2023-01-12T07:40:13.256Z,100979.84
2023-01-12T07:42:45.575Z,100981.94
2023-01-12T07:45:17.608Z,100974.12
2023-01-12T07:47:55.216Z,100977.27
2023-01-12T07:50:29.035Z,100978.56
2023-01-12T07:53:04.758Z,100966.16
2023-01-12T07:55:38.955Z,100965.67
2023-01-12T07:58:11.473Z,100984.30
2023-01-12T08:00:44.536Z,100978.11
2023-01-12T08:03:16.557Z,100987.19
2023-01-12T08:05:49.638Z,100974.80
2023-01-12T08:08:22.206Z,100978.36
2023-01-12T08:10:54.749Z,100973.83
2023-01-12T08:13:26.739Z,100963.06
2023-01-12T08:16:06.179Z,100958.61
2023-01-12T08:18:47.193Z,100953.91
2023-01-12T08:21:22.055Z,100954.57
2023-01-12T08:23:56.955Z,100962.42
2023-01-12T08:26:38.204Z,100948.95
2023-01-12T08:29:19.304Z,100954.62
2023-01-12T08:31:52.193Z,100948.97
2023-01-12T08:34:24.558Z,100945.41
2023-01-12T08:36:58.831Z,100956.03
2023-01-12T08:39:31.207Z,100954.80
2023-01-12T08:42:03.856Z,100953.84
2023-01-12T08:44:36.392Z,100935.55
2023-01-12T08:47:14.635Z,100945.16
2023-01-12T08:49:46.855Z,100954.77
2023-01-12T08:52:19.042Z,100936.31
2023-01-12T08:54:51.286Z,100933.28
2023-01-12T08:57:23.395Z,100939.61
2023-01-12T08:59:55.583Z,100934.88
2023-01-12T09:02:28.189Z,100929.61
2023-01-12T09:05:00.278Z,100916.42
2023-01-12T09:07:34.024Z,100915.18
2023-01-12T09:10:06.818Z,100911.34
2023-01-12T09:12:38.734Z,100917.91
2023-01-12T09:15:11.398Z,100915.21
2023-01-12T09:17:44.616Z,100911.81
2023-01-12T09:20:17.349Z,100915.95
2023-01-12T09:22:49.559Z,100902.41
2023-01-12T09:25:21.930Z,100905.20
2023-01-12T09:27:54.075Z,100902.55
2023-01-12T09:30:26.140Z,100905.89
2023-01-12T09:32:58.942Z,100889.73
2023-01-12T09:35:31.686Z,100884.63
2023-01-12T09:38:03.736Z,100888.24
2023-01-12T09:40:35.971Z,100887.49
2023-01-12T09:43:28.786Z,100878.09
2023-01-12T09:46:18.526Z,100884.18
2023-01-12T09:48:50.965Z,100885.11
2023-01-12T09:51:28.581Z,100886.05
2023-01-12T09:54:00.557Z,100885.98
2023-01-12T09:56:38.661Z,100875.66
2023-01-12T09:59:13.913Z,100882.47
2023-01-12T10:01:46.321Z,100876.55
2023-01-12T10:04:18.574Z,100874.64
2023-01-12T10:06:51.197Z,100871.20
2023-01-12T10:09:24.681Z,100871.95
2023-01-12T10:12:00.148Z,100872.88
2023-01-12T10:14:35.102Z,100861.76
2023-01-12T10:17:12.963Z,100856.51
2023-01-12T10:20:04.258Z,100864.27
2023-01-12T10:22:54.927Z,100868.51
2023-01-12T10:25:30.101Z,100866.52
2023-01-12T10:28:03.958Z,100859.68
2023-01-12T10:30:36.336Z,100864.80
2023-01-12T10:33:17.389Z,100852.22
2023-01-12T10:36:13.473Z,100863.17
2023-01-12T10:38:57.874Z,100852.09
2023-01-12T10:41:39.755Z,100849.66
2023-01-12T10:44:17.359Z,100842.11
2023-01-12T10:46:52.621Z,100836.06
2023-01-12T10:49:27.058Z,100830.95
2023-01-12T10:52:04.623Z,100825.11
2023-01-12T10:54:41.974Z,100826.07
2023-01-12T10:57:23.490Z,100833.80
2023-01-12T10:59:58.923Z,100830.41
2023-01-12T11:02:44.761Z,100814.27
2023-01-12T11:05:36.956Z,100808.23
2023-01-12T11:08:29.825Z,100810.80
2023-01-12T11:11:05.334Z,100811.72
2023-01-12T11:13:39.397Z,100809.20
2023-01-12T11:16:23.540Z,100803.19
2023-01-12T11:19:10.350Z,100804.95
2023-01-12T11:21:45.185Z,100806.59
2023-01-12T11:24:55.155Z,100802.39
2023-01-12T11:27:32.922Z,100808.40
2023-01-12T11:30:24.697Z,100804.16
2023-01-12T11:33:04.518Z,100797.39
2023-01-12T11:35:54.379Z,100787.06
2023-01-12T11:38:29.359Z,100789.70
2023-01-12T11:41:01.445Z,100787.06
2023-01-12T11:43:51.175Z,100773.34
2023-01-12T11:46:26.914Z,100775.91
2023-01-12T11:49:07.971Z,100778.42
2023-01-12T11:51:40.940Z,100779.23
2023-01-12T11:54:19.426Z,100780.10
2023-01-12T11:57:06.825Z,100772.37
2023-01-12T11:59:47.374Z,100774.02
2023-01-12T12:02:40.058Z,100783.30
2023-01-12T12:05:27.414Z,100778.98
2023-01-12T12:08:08.884Z,100766.93
2023-01-12T12:11:02.761Z,100769.53
2023-01-12T12:13:45.180Z,100769.45
2023-01-12T12:16:31.712Z,100767.13
2023-01-12T12:19:13.096Z,100766.09
2023-01-12T12:21:50.908Z,100759.84
2023-01-12T12:24:37.813Z,100760.59
2023-01-12T12:27:25.420Z,100754.42
2023-01-12T12:30:06.004Z,100762.77
2023-01-12T12:32:49.778Z,100751.56
2023-01-12T12:35:41.712Z,100763.52
2023-01-12T12:38:21.229Z,100744.55
2023-01-12T12:41:22.876Z,100748.65
2023-01-12T12:44:31.865Z,100749.39
2023-01-12T12:47:24.870Z,100763.08
2023-01-12T12:49:59.811Z,100759.50
2023-01-12T12:52:35.615Z,100767.04
2023-01-12T12:55:09.782Z,100772.98
2023-01-12T12:58:03.199Z,100758.56
2023-01-12T13:00:46.934Z,100753.45
2023-01-12T13:03:47.325Z,100759.37
2023-01-12T13:06:40.522Z,100772.80
2023-01-12T13:09:18.255Z,100757.50
2023-01-12T13:12:02.568Z,100745.50
2023-01-12T13:14:40.163Z,100759.92
2023-01-12T13:17:24.122Z,100754.89
2023-01-12T13:20:08.471Z,100753.13
2023-01-12T13:22:52.201Z,100749.14
2023-01-12T13:25:27.959Z,100758.44
2023-01-12T13:28:03.203Z,100756.89
2023-01-12T13:30:39.862Z,100748.25
2023-01-12T13:33:24.263Z,100742.16
2023-01-12T13:36:01.579Z,100745.73
2023-01-12T13:38:39.423Z,100743.05
2023-01-12T13:41:50.738Z,100734.49
2023-01-12T13:44:32.310Z,100731.09
2023-01-12T13:47:10.458Z,100731.23
2023-01-12T13:49:50.945Z,100727.78
2023-01-12T13:52:25.896Z,100731.23
2023-01-12T13:54:58.991Z,100720.20
2023-01-12T13:57:33.271Z,100714.86
2023-01-12T14:00:11.462Z,100704.68
2023-01-12T14:02:46.879Z,100708.91
2023-01-12T14:05:51.591Z,100712.39
2023-01-12T14:08:51.683Z,100717.47
2023-01-12T14:11:25.393Z,100708.37
2023-01-12T14:14:02.180Z,100691.27
2023-01-12T14:17:04.810Z,100694.58
2023-01-12T14:19:28.184Z,100693.56
2023-01-12T14:22:02.912Z,100693.56
2023-01-12T14:24:35.000Z,100700.23
2023-01-12T14:27:10.402Z,100700.12
2023-01-12T14:29:42.792Z,100701.02
2023-01-12T14:32:15.908Z,100702.91
2023-01-12T14:34:53.295Z,100696.17
2023-01-12T14:37:31.292Z,100692.91
2023-01-12T14:40:04.401Z,100698.99
2023-01-12T14:42:54.154Z,100704.15
2023-01-12T14:45:46.038Z,100699.83
2023-01-12T14:48:23.365Z,100699.83
2023-01-12T14:51:03.805Z,100686.81
2023-01-12T14:53:43.903Z,100677.47
2023-01-12T14:56:22.041Z,100688.45
2023-01-12T14:58:55.087Z,100678.13
2023-01-12T15:01:34.109Z,100683.29
2023-01-12T15:04:09.161Z,100691.67
2023-01-12T15:06:43.848Z,100691.49
2023-01-12T15:09:31.834Z,100696.47
2023-01-12T15:12:29.440Z,100689.55
2023-01-12T15:15:26.936Z,100695.59
2023-01-12T15:18:16.732Z,100688.66
2023-01-12T15:21:06.364Z,100690.42
2023-01-12T15:23:56.813Z,100690.73
2023-01-12T15:26:28.948Z,100697.67
2023-01-12T15:29:00.915Z,100690.21
2023-01-12T15:31:35.929Z,100686.16
2023-01-12T15:34:10.372Z,100683.77
2023-01-12T15:36:42.334Z,100672.91
2023-01-12T15:39:18.131Z,100681.67
2023-01-12T15:42:07.954Z,100682.00
2023-01-12T15:44:40.131Z,100678.55
2023-01-12T15:47:16.965Z,100672.64
2023-01-12T15:49:51.513Z,100676.08
2023-01-12T15:52:26.367Z,100674.63
2023-01-12T15:54:58.762Z,100670.44
2023-01-12T15:57:32.770Z,100667.11
2023-01-12T16:00:05.438Z,100665.58
2023-01-12T16:02:39.468Z,100661.48
2023-01-12T16:05:13.595Z,100656.36
2023-01-12T16:07:48.485Z,100654.75
2023-01-12T16:10:21.172Z,100659.98
2023-01-12T16:12:54.780Z,100654.91
2023-01-12T16:15:28.930Z,100651.64
2023-01-12T16:18:01.698Z,100655.16
2023-01-12T16:20:33.943Z,100656.00
2023-01-12T16:23:05.968Z,100657.75
2023-01-12T16:25:38.594Z,100650.03
2023-01-12T16:28:10.993Z,100654.34
2023-01-12T16:30:45.813Z,100648.41
2023-01-12T16:33:18.058Z,100649.33
2023-01-12T16:35:50.480Z,100646.83
2023-01-12T16:38:22.501Z,100644.27
2023-01-12T16:40:54.970Z,100648.59
2023-01-12T16:43:27.520Z,100645.18
2023-01-12T16:45:59.909Z,100643.53
2023-01-12T16:48:33.565Z,100640.13
2023-01-12T16:51:07.228Z,100649.67
2023-01-12T16:53:40.819Z,100642.78
2023-01-12T16:56:15.144Z,100630.07
2023-01-12T16:58:50.464Z,100621.53
2023-01-12T17:01:26.818Z,100621.57
2023-01-12T17:03:59.133Z,100624.13
2023-01-12T17:06:35.131Z,100629.45
2023-01-12T17:09:07.744Z,100625.04
2023-01-12T17:11:41.430Z,100627.67
2023-01-12T17:14:27.617Z,100626.80
2023-01-12T17:17:04.960Z,100626.02
2023-01-12T17:19:38.468Z,100628.64
2023-01-12T17:22:12.735Z,100624.30
2023-01-12T17:24:44.972Z,100620.86
2023-01-12T17:27:17.237Z,100619.98
2023-01-12T17:29:49.923Z,100614.01
2023-01-12T17:32:22.213Z,100611.38
2023-01-12T17:34:54.545Z,100609.69
2023-01-12T17:37:26.562Z,100621.63
2023-01-12T17:39:58.779Z,100625.92
2023-01-12T17:42:49.606Z,100624.20
2023-01-12T17:45:21.307Z,100624.42
2023-01-12T17:47:53.346Z,100625.17
2023-01-12T17:50:25.406Z,100620.76
2023-01-12T17:52:57.258Z,100611.34
2023-01-12T17:55:29.630Z,100612.16
2023-01-12T17:58:01.777Z,100601.06
2023-01-12T18:00:34.491Z,100611.38
2023-01-12T18:03:06.754Z,100610.53
2023-01-12T18:05:39.682Z,100607.94
2023-01-12T18:08:12.793Z,100624.16
2023-01-12T18:10:44.944Z,100619.98
2023-01-12T18:13:16.817Z,100612.29
2023-01-12T18:15:48.897Z,100608.03
2023-01-12T18:18:20.928Z,100617.48
2023-01-12T18:20:53.916Z,100621.73
2023-01-12T18:23:25.977Z,100616.67
2023-01-12T18:25:59.757Z,100632.92
2023-01-12T18:28:31.975Z,100625.27
2023-01-12T18:31:12.965Z,100627.83
2023-01-12T18:33:57.637Z,100617.51
2023-01-12T18:36:29.685Z,100619.20
2023-01-12T18:39:01.965Z,100612.41
2023-01-12T18:41:53.660Z,100609.81
2023-01-12T18:44:26.431Z,100596.97
2023-01-12T18:47:17.068Z,100596.97
2023-01-12T18:49:49.369Z,100604.75
2023-01-12T18:52:39.396Z,100612.48
2023-01-12T18:55:11.385Z,100621.77
2023-01-12T18:57:43.412Z,100625.14
2023-01-12T19:00:17.030Z,100629.42
2023-01-12T19:02:48.609Z,100631.17
2023-01-12T19:05:22.199Z,100630.48
2023-01-12T19:08:01.407Z,100637.11
2023-01-12T19:10:34.360Z,100623.42
2023-01-12T19:13:24.271Z,100625.01
2023-01-12T19:16:15.300Z,100632.83
2023-01-12T19:18:47.450Z,100617.29
2023-01-12T19:21:36.979Z,100615.70
2023-01-12T19:24:29.613Z,100607.09
2023-01-12T19:27:19.404Z,100605.47
2023-01-12T19:29:51.362Z,100614.88
2023-01-12T19:32:23.911Z,100611.47
2023-01-12T19:35:02.328Z,100607.94
2023-01-12T19:37:29.890Z,100622.52
2023-01-12T19:40:06.481Z,100631.11
2023-01-12T19:42:56.163Z,100630.27
2023-01-12T19:45:28.102Z,100637.95
2023-01-12T19:48:00.367Z,100641.46
2023-01-12T19:50:32.195Z,100637.18
2023-01-12T19:53:04.729Z,100632.17
2023-01-12T19:55:37.055Z,100619.26
2023-01-12T19:58:09.388Z,100620.98
2023-01-12T20:00:46.892Z,100621.86
2023-01-12T20:03:21.254Z,100615.04
2023-01-12T20:05:53.735Z,100619.33
2023-01-12T20:08:27.440Z,100621.89
2023-01-12T20:11:03.970Z,100621.86
2023-01-12T20:13:35.071Z,100597.69
2023-01-12T20:16:08.670Z,100614.13
2023-01-12T20:18:42.245Z,100619.36
2023-01-12T20:21:14.194Z,100613.32
2023-01-12T20:23:46.344Z,100615.95
2023-01-12T20:26:18.530Z,100615.10
2023-01-12T20:28:50.567Z,100609.13
2023-01-12T20:31:23.584Z,100609.13
2023-01-12T20:33:55.683Z,100613.47
2023-01-12T20:36:27.585Z,100607.41
2023-01-12T20:39:00.368Z,100603.06
2023-01-12T20:41:32.393Z,100614.27
2023-01-12T20:44:06.672Z,100600.50
2023-01-12T20:46:37.856Z,100599.66
2023-01-12T20:49:09.820Z,100613.59
2023-01-12T20:51:41.859Z,100610.03
2023-01-12T20:54:13.869Z,100610.78
2023-01-12T20:56:45.843Z,100613.32
2023-01-12T20:59:17.728Z,100606.50
2023-01-12T21:01:49.801Z,100610.88
2023-01-12T21:04:21.895Z,100609.97
2023-01-12T21:06:54.115Z,100614.31
2023-01-12T21:09:26.256Z,100614.29
2023-01-12T21:11:58.116Z,100615.16
2023-01-12T21:14:30.487Z,100617.73
2023-01-12T21:17:03.097Z,100615.22
2023-01-12T21:19:35.512Z,100607.50
2023-01-12T21:22:07.526Z,100616.87
2023-01-12T21:24:39.540Z,100611.75
2023-01-12T21:27:11.597Z,100602.38
2023-01-12T21:29:43.624Z,100605.81
2023-01-12T21:32:15.443Z,100609.22
2023-01-12T21:34:49.069Z,100609.22
2023-01-12T21:37:22.626Z,100613.53
2023-01-12T21:39:54.589Z,100620.36
2023-01-12T21:42:44.615Z,100615.25
2023-01-12T21:45:16.728Z,100608.55
2023-01-12T21:47:48.700Z,100599.05
2023-01-12T21:50:20.868Z,100594.73
2023-01-12T21:52:52.855Z,100590.45
2023-01-12T21:55:24.920Z,100587.95
2023-01-12T21:57:57.231Z,100593.08
2023-01-12T22:00:29.927Z,100587.07
2023-01-12T22:03:02.217Z,100587.07
2023-01-12T22:05:34.960Z,100580.28
2023-01-12T22:08:07.028Z,100584.53
2023-01-12T22:10:39.012Z,100589.66
2023-01-12T22:13:13.845Z,100584.59
2023-01-12T22:15:47.713Z,100586.37
2023-01-12T22:18:20.961Z,100590.59
2023-01-12T22:20:52.969Z,100590.56
2023-01-12T22:23:24.974Z,100597.48
2023-01-12T22:25:57.047Z,100575.16
2023-01-12T22:28:29.161Z,100588.01
2023-01-12T22:31:02.515Z,100587.16
2023-01-12T22:33:34.486Z,100587.16
2023-01-12T22:36:07.983Z,100595.70
2023-01-12T22:38:40.148Z,100582.03
2023-01-12T22:41:13.209Z,100585.44
2023-01-12T22:43:45.201Z,100592.34
2023-01-12T22:46:22.860Z,100591.53
2023-01-12T22:49:02.050Z,100578.62
2023-01-12T22:51:34.319Z,100576.95
2023-01-12T22:54:06.340Z,100581.24
2023-01-12T22:56:38.779Z,100589.90
2023-01-12T22:59:11.189Z,100591.56
2023-01-12T23:01:43.325Z,100594.18
2023-01-12T23:04:15.306Z,100596.78
2023-01-12T23:06:47.632Z,100595.08
2023-01-12T23:09:19.941Z,100583.08
2023-01-12T23:11:51.973Z,100582.26
2023-01-12T23:14:24.073Z,100590.80
2023-01-12T23:16:56.077Z,100594.21
2023-01-12T23:19:28.444Z,100590.80
2023-01-12T23:22:02.206Z,100580.52
2023-01-12T23:24:34.221Z,100584.80
2023-01-12T23:27:07.063Z,100572.10
2023-01-12T23:29:39.289Z,100566.05
2023-01-12T23:32:11.361Z,100560.05
2023-01-12T23:34:43.344Z,100553.19
2023-01-12T23:37:15.373Z,100554.91
2023-01-12T23:39:47.441Z,100557.50
2023-01-12T23:42:19.412Z,100561.78
2023-01-12T23:44:52.118Z,100566.06
2023-01-12T23:47:24.559Z,100559.22
2023-01-12T23:49:57.515Z,100563.53
2023-01-12T23:52:29.837Z,100566.18
2023-01-12T23:55:01.960Z,100554.22
2023-01-12T23:57:34.417Z,100551.66
